createdAt,value
2023-03-17T00:01:24.967Z,99.90
2023-03-17T00:03:53.004Z,99.90
2023-03-17T00:06:26.182Z,99.90
2023-03-17T00:08:54.220Z,99.90
2023-03-17T00:11:24.486Z,99.90
2023-03-17T00:13:52.920Z,99.90
2023-03-17T00:16:23.081Z,99.90
2023-03-17T00:18:54.677Z,99.90
2023-03-17T00:21:28.125Z,99.90
2023-03-17T00:23:56.932Z,99.90
2023-03-17T00:26:26.597Z,99.90
2023-03-17T00:28:55.341Z,99.90
2023-03-17T00:31:25.946Z,99.90
2023-03-17T00:33:55.715Z,99.90
2023-03-17T00:36:25.324Z,99.90
2023-03-17T00:38:56.207Z,99.90
2023-03-17T00:41:25.755Z,99.90
2023-03-17T00:43:54.059Z,99.90
2023-03-17T00:46:27.899Z,99.90
2023-03-17T00:48:56.088Z,99.90
2023-03-17T00:51:24.321Z,99.90
2023-03-17T00:53:52.684Z,99.90
2023-03-17T00:56:22.456Z,99.90
2023-03-17T00:58:53.211Z,99.90
2023-03-17T01:01:21.223Z,99.90
2023-03-17T01:03:49.309Z,99.90
2023-03-17T01:06:17.765Z,99.90
2023-03-17T01:08:46.631Z,99.90
2023-03-17T01:11:18.752Z,99.90
2023-03-17T01:13:47.796Z,99.90
2023-03-17T01:16:18.032Z,99.90
2023-03-17T01:18:46.298Z,99.90
2023-03-17T01:21:15.436Z,99.90
2023-03-17T01:23:43.697Z,99.90
2023-03-17T01:26:11.861Z,99.90
2023-03-17T01:28:39.784Z,99.90
2023-03-17T01:31:07.731Z,99.90
2023-03-17T01:33:36.955Z,99.90
2023-03-17T01:36:05.094Z,99.90
2023-03-17T01:38:32.997Z,99.90
2023-03-17T01:41:02.302Z,99.90
2023-03-17T01:43:32.073Z,99.90
2023-03-17T01:46:29.576Z,99.90
2023-03-17T01:49:04.389Z,99.90
2023-03-17T01:51:36.628Z,99.90
2023-03-17T01:54:09.321Z,99.90
2023-03-17T01:56:38.541Z,99.90
2023-03-17T01:59:10.561Z,99.90
2023-03-17T02:01:43.629Z,99.90
2023-03-17T02:04:13.477Z,99.90
2023-03-17T02:06:56.791Z,99.90
2023-03-17T02:09:26.375Z,99.90
2023-03-17T02:11:55.543Z,99.90
2023-03-17T02:14:23.646Z,99.90
2023-03-17T02:16:51.730Z,99.90
2023-03-17T02:19:21.080Z,99.90
2023-03-17T02:21:51.955Z,99.90
2023-03-17T02:24:29.365Z,99.90
2023-03-17T02:27:02.017Z,99.90
2023-03-17T02:29:32.489Z,99.90
2023-03-17T02:32:00.433Z,99.90
2023-03-17T02:34:28.413Z,99.90
2023-03-17T02:36:58.480Z,99.90
2023-03-17T02:39:27.496Z,99.90
2023-03-17T02:41:55.878Z,99.90
2023-03-17T02:44:23.795Z,99.90
2023-03-17T02:46:51.891Z,99.90
2023-03-17T02:49:20.500Z,99.90
2023-03-17T02:51:48.470Z,99.90
2023-03-17T02:54:17.725Z,99.90
2023-03-17T02:56:45.874Z,99.90
2023-03-17T02:59:13.789Z,99.90
2023-03-17T03:01:41.700Z,99.90
2023-03-17T03:04:10.571Z,99.90
2023-03-17T03:06:39.884Z,99.90
2023-03-17T03:09:07.821Z,99.90
2023-03-17T03:11:37.380Z,99.90
2023-03-17T03:14:05.542Z,99.90
2023-03-17T03:16:34.817Z,99.90
2023-03-17T03:19:02.736Z,99.90
2023-03-17T03:21:30.696Z,99.90
2023-03-17T03:23:58.697Z,99.90
2023-03-17T03:26:27.284Z,99.90
2023-03-17T03:28:57.382Z,99.90
2023-03-17T03:31:26.166Z,99.90
2023-03-17T03:33:54.502Z,99.90
2023-03-17T03:36:23.263Z,99.90
2023-03-17T03:38:51.377Z,99.90
2023-03-17T03:41:19.492Z,99.90
2023-03-17T03:43:47.336Z,99.90
2023-03-17T03:46:16.787Z,99.90
2023-03-17T03:48:44.681Z,99.90
2023-03-17T03:51:12.627Z,99.90
2023-03-17T03:53:40.965Z,99.90
2023-03-17T03:56:09.352Z,99.90
2023-03-17T03:58:37.274Z,99.90
2023-03-17T04:01:06.142Z,99.90
2023-03-17T04:03:35.558Z,99.90
2023-03-17T04:06:03.939Z,99.90
2023-03-17T04:08:32.621Z,99.90
2023-03-17T04:11:00.580Z,99.90
2023-03-17T04:13:28.449Z,99.90
2023-03-17T04:15:56.460Z,99.90
2023-03-17T04:18:24.431Z,99.90
2023-03-17T04:20:53.706Z,99.90
2023-03-17T04:23:22.063Z,99.90
2023-03-17T04:25:51.894Z,99.90
2023-03-17T04:28:20.486Z,99.90
2023-03-17T04:30:48.384Z,99.90
2023-03-17T04:33:16.721Z,99.90
2023-03-17T04:35:44.615Z,99.90
2023-03-17T04:38:14.511Z,99.90
2023-03-17T04:40:42.557Z,99.90
2023-03-17T04:43:10.451Z,99.90
2023-03-17T04:45:38.474Z,99.90
2023-03-17T04:48:07.032Z,99.90
2023-03-17T04:50:34.972Z,99.90
2023-03-17T04:53:03.089Z,99.90
2023-03-17T04:55:32.302Z,99.90
2023-03-17T04:58:00.229Z,99.90
2023-03-17T05:00:28.374Z,99.90
2023-03-17T05:02:56.354Z,99.90
2023-03-17T05:05:24.265Z,99.90
2023-03-17T05:07:52.124Z,99.90
2023-03-17T05:10:20.202Z,99.90
2023-03-17T05:12:51.782Z,99.90
2023-03-17T05:15:19.844Z,99.90
2023-03-17T05:17:47.741Z,99.90
2023-03-17T05:20:15.962Z,99.90
2023-03-17T05:22:43.846Z,99.90
2023-03-17T05:25:11.851Z,99.90
2023-03-17T05:27:39.777Z,99.90
2023-03-17T05:30:10.534Z,99.90
2023-03-17T05:32:38.533Z,99.90
2023-03-17T05:35:07.179Z,99.90
2023-03-17T05:37:35.142Z,99.90
2023-03-17T05:40:03.585Z,99.90
2023-03-17T05:42:31.712Z,99.90
2023-03-17T05:45:00.089Z,99.90
2023-03-17T05:47:29.638Z,99.90
2023-03-17T05:49:57.851Z,99.90
2023-03-17T05:52:26.168Z,99.90
2023-03-17T05:54:54.675Z,99.90
2023-03-17T05:57:22.811Z,99.90
2023-03-17T05:59:50.815Z,99.90
2023-03-17T06:02:18.891Z,99.90
2023-03-17T06:04:48.626Z,99.90
2023-03-17T06:07:17.432Z,99.90
2023-03-17T06:09:45.388Z,99.90
2023-03-17T06:12:13.334Z,99.90
2023-03-17T06:14:41.271Z,99.90
2023-03-17T06:17:09.306Z,99.90
2023-03-17T06:19:37.263Z,99.90
2023-03-17T06:22:07.019Z,99.90
2023-03-17T06:24:35.218Z,99.90
2023-03-17T06:27:03.186Z,99.90
2023-03-17T06:29:31.864Z,99.90
2023-03-17T06:32:17.115Z,99.90
2023-03-17T06:34:48.138Z,99.90
2023-03-17T06:37:17.431Z,99.90
2023-03-17T06:39:45.414Z,99.90
2023-03-17T06:42:13.656Z,99.90
2023-03-17T06:44:41.725Z,99.90
2023-03-17T06:47:09.716Z,99.90
2023-03-17T06:49:37.712Z,99.90
2023-03-17T06:52:05.955Z,99.90
2023-03-17T06:54:36.519Z,99.90
2023-03-17T06:57:05.629Z,99.90
2023-03-17T06:59:33.757Z,99.90
2023-03-17T07:02:01.803Z,99.90
2023-03-17T07:04:29.769Z,99.90
2023-03-17T07:06:57.804Z,99.90
2023-03-17T07:09:25.778Z,99.90
2023-03-17T07:11:55.068Z,99.90
2023-03-17T07:14:23.134Z,99.90
2023-03-17T07:16:51.228Z,99.90
2023-03-17T07:19:19.176Z,99.90
2023-03-17T07:21:47.240Z,99.90
2023-03-17T07:24:15.219Z,99.90
2023-03-17T07:26:43.155Z,99.90
2023-03-17T07:29:12.395Z,99.90
2023-03-17T07:31:41.209Z,99.90
2023-03-17T07:34:09.208Z,99.90
2023-03-17T07:36:37.911Z,99.90
2023-03-17T07:39:06.530Z,99.90
2023-03-17T07:41:35.111Z,99.90
2023-03-17T07:44:03.887Z,99.90
2023-03-17T07:46:33.201Z,99.90
2023-03-17T07:49:01.680Z,99.90
2023-03-17T07:51:29.655Z,99.90
2023-03-17T07:54:03.309Z,99.90
2023-03-17T07:56:32.026Z,99.90
2023-03-17T07:59:00.274Z,99.90
2023-03-17T08:01:28.947Z,99.90
2023-03-17T08:03:58.330Z,99.90
2023-03-17T08:06:26.526Z,99.90
2023-03-17T08:08:55.772Z,99.90
2023-03-17T08:11:24.350Z,99.90
2023-03-17T08:13:52.389Z,99.90
2023-03-17T08:16:20.334Z,99.90
2023-03-17T08:18:48.340Z,99.90
2023-03-17T08:21:17.691Z,99.90
2023-03-17T08:23:45.721Z,99.90
2023-03-17T08:26:14.259Z,99.90
2023-03-17T08:28:42.989Z,99.90
2023-03-17T08:31:12.869Z,99.90
2023-03-17T08:33:42.339Z,99.90
2023-03-17T08:36:12.763Z,99.90
2023-03-17T08:38:43.567Z,99.90
2023-03-17T08:41:14.089Z,99.90
2023-03-17T08:43:44.093Z,99.90
2023-03-17T08:46:16.878Z,99.90
2023-03-17T08:48:46.768Z,99.90
2023-03-17T08:51:18.304Z,99.90
2023-03-17T08:53:48.573Z,99.90
2023-03-17T08:56:16.881Z,99.20
2023-03-17T08:58:45.146Z,98.80
2023-03-17T09:01:13.305Z,98.30
2023-03-17T09:03:41.845Z,97.70
2023-03-17T09:06:12.390Z,97.70
2023-03-17T09:08:44.710Z,97.10
2023-03-17T09:11:16.523Z,96.90
2023-03-17T09:13:44.825Z,96.40
2023-03-17T09:16:12.884Z,96.10
2023-03-17T09:18:41.212Z,95.90
2023-03-17T09:21:09.813Z,96.00
2023-03-17T09:23:38.076Z,95.90
2023-03-17T09:26:06.316Z,95.40
2023-03-17T09:28:35.627Z,94.80
2023-03-17T09:31:06.148Z,94.20
2023-03-17T09:33:34.196Z,94.00
2023-03-17T09:36:02.128Z,94.00
2023-03-17T09:38:30.176Z,93.60
2023-03-17T09:41:05.861Z,93.10
2023-03-17T09:43:42.940Z,92.20
2023-03-17T09:46:24.807Z,91.10
2023-03-17T09:49:01.088Z,89.30
2023-03-17T09:51:30.244Z,87.70
2023-03-17T09:54:02.583Z,85.50
2023-03-17T09:56:34.797Z,84.40
2023-03-17T09:59:23.739Z,83.40
2023-03-17T10:01:51.897Z,83.20
2023-03-17T10:04:20.189Z,82.30
2023-03-17T10:06:48.861Z,81.80
2023-03-17T10:09:26.698Z,79.60
2023-03-17T10:12:03.256Z,78.20
2023-03-17T10:14:49.017Z,77.00
2023-03-17T10:17:21.068Z,76.50
2023-03-17T10:19:56.822Z,75.50
2023-03-17T10:22:31.051Z,74.60
2023-03-17T10:25:03.866Z,73.10
2023-03-17T10:27:37.568Z,72.00
2023-03-17T10:30:16.108Z,69.10
2023-03-17T10:32:45.533Z,66.70
2023-03-17T10:35:16.161Z,64.40
2023-03-17T10:37:45.677Z,63.60
2023-03-17T10:40:24.521Z,62.60
2023-03-17T10:42:56.477Z,61.90
2023-03-17T10:45:29.460Z,60.10
2023-03-17T10:47:58.757Z,58.70
2023-03-17T10:50:30.401Z,57.50
2023-03-17T10:53:01.024Z,56.20
2023-03-17T10:55:32.589Z,55.20
2023-03-17T10:58:04.836Z,55.60
2023-03-17T11:00:36.202Z,55.00
2023-03-17T11:03:13.075Z,55.20
2023-03-17T11:05:43.368Z,55.80
2023-03-17T11:08:18.527Z,54.80
2023-03-17T11:10:46.747Z,55.00
2023-03-17T11:13:18.246Z,54.20
2023-03-17T11:15:52.513Z,52.60
2023-03-17T11:18:26.565Z,51.30
2023-03-17T11:21:00.556Z,49.70
2023-03-17T11:23:46.311Z,48.10
2023-03-17T11:26:34.775Z,47.10
2023-03-17T11:29:21.073Z,47.00
2023-03-17T11:31:57.395Z,48.10
2023-03-17T11:34:36.939Z,49.30
2023-03-17T11:37:12.908Z,49.90
2023-03-17T11:39:51.137Z,50.70
2023-03-17T11:42:24.589Z,51.10
2023-03-17T11:45:03.740Z,50.70
2023-03-17T11:48:02.610Z,50.50
2023-03-17T11:50:35.536Z,49.70
2023-03-17T11:53:31.957Z,49.00
2023-03-17T11:56:04.197Z,49.10
2023-03-17T11:58:37.560Z,49.60
2023-03-17T12:01:09.072Z,49.70
2023-03-17T12:03:46.001Z,50.50
2023-03-17T12:06:17.931Z,50.70
2023-03-17T12:08:52.557Z,51.10
2023-03-17T12:11:25.512Z,51.40
2023-03-17T12:13:58.458Z,51.80
2023-03-17T12:16:33.142Z,51.90
2023-03-17T12:19:12.261Z,52.30
2023-03-17T12:21:50.240Z,52.40
2023-03-17T12:24:21.163Z,53.00
2023-03-17T12:26:55.774Z,53.00
2023-03-17T12:29:31.924Z,53.10
2023-03-17T12:32:05.905Z,53.60
2023-03-17T12:34:44.625Z,53.60
2023-03-17T12:37:12.829Z,53.60
2023-03-17T12:39:54.704Z,53.90
2023-03-17T12:42:47.825Z,53.90
2023-03-17T12:45:32.472Z,53.80
2023-03-17T12:48:22.217Z,54.20
2023-03-17T12:51:17.699Z,54.10
2023-03-17T12:53:47.844Z,54.40
2023-03-17T12:56:21.765Z,54.40
2023-03-17T12:58:51.643Z,55.00
2023-03-17T13:01:28.531Z,54.90
2023-03-17T13:04:05.578Z,55.30
2023-03-17T13:06:40.766Z,55.60
2023-03-17T13:09:39.542Z,55.60
2023-03-17T13:12:28.163Z,55.80
2023-03-17T13:14:58.769Z,55.60
2023-03-17T13:17:34.879Z,55.40
2023-03-17T13:20:17.213Z,55.50
2023-03-17T13:23:07.593Z,55.40
2023-03-17T13:25:36.930Z,55.60
2023-03-17T13:28:23.784Z,55.70
2023-03-17T13:30:58.308Z,55.80
2023-03-17T13:33:32.205Z,56.30
2023-03-17T13:36:17.740Z,56.00
2023-03-17T13:39:19.841Z,56.40
2023-03-17T13:42:08.561Z,56.60
2023-03-17T13:45:10.012Z,56.70
2023-03-17T13:47:42.360Z,56.40
2023-03-17T13:50:16.129Z,56.50
2023-03-17T13:52:49.656Z,56.60
2023-03-17T13:55:43.473Z,56.40
2023-03-17T13:58:34.247Z,56.50
2023-03-17T14:01:07.301Z,56.40
2023-03-17T14:03:41.541Z,56.60
2023-03-17T14:06:13.331Z,56.60
2023-03-17T14:08:46.775Z,56.50
2023-03-17T14:11:24.849Z,56.70
2023-03-17T14:14:06.030Z,57.10
2023-03-17T14:16:37.400Z,57.20
2023-03-17T14:19:17.653Z,57.20
2023-03-17T14:21:45.761Z,57.10
2023-03-17T14:24:22.439Z,57.00
2023-03-17T14:26:53.078Z,57.20
2023-03-17T14:29:26.190Z,57.70
2023-03-17T14:32:03.509Z,58.10
2023-03-17T14:34:32.383Z,58.50
2023-03-17T14:37:02.625Z,59.10
2023-03-17T14:39:31.041Z,59.40
2023-03-17T14:42:02.145Z,59.50
2023-03-17T14:44:37.231Z,60.00
2023-03-17T14:47:08.719Z,60.20
2023-03-17T14:49:37.680Z,60.50
2023-03-17T14:52:06.037Z,61.10
2023-03-17T14:54:35.758Z,61.70
2023-03-17T14:57:08.158Z,61.90
2023-03-17T14:59:38.831Z,62.10
2023-03-17T15:02:21.966Z,62.50
2023-03-17T15:04:55.290Z,62.80
2023-03-17T15:07:33.010Z,63.00
2023-03-17T15:10:02.800Z,62.90
2023-03-17T15:12:33.013Z,63.20
2023-03-17T15:15:04.277Z,63.30
2023-03-17T15:17:34.120Z,63.60
2023-03-17T15:20:05.489Z,63.70
2023-03-17T15:22:41.356Z,64.00
2023-03-17T15:25:20.092Z,64.20
2023-03-17T15:27:49.834Z,64.30
2023-03-17T15:30:19.522Z,64.60
2023-03-17T15:32:52.833Z,64.80
2023-03-17T15:35:21.351Z,65.10
2023-03-17T15:37:49.275Z,65.30
2023-03-17T15:40:17.374Z,65.40
2023-03-17T15:42:45.923Z,65.60
2023-03-17T15:45:17.982Z,65.50
2023-03-17T15:47:47.361Z,65.30
2023-03-17T15:50:18.318Z,65.10
2023-03-17T15:52:46.903Z,65.10
2023-03-17T15:55:21.879Z,64.80
2023-03-17T15:57:55.160Z,64.10
2023-03-17T16:00:26.632Z,64.30
2023-03-17T16:02:56.192Z,64.70
2023-03-17T16:05:26.225Z,65.20
2023-03-17T16:07:54.374Z,65.60
2023-03-17T16:10:24.152Z,65.80
2023-03-17T16:12:52.685Z,66.10
2023-03-17T16:15:23.722Z,66.50
2023-03-17T16:17:56.269Z,66.80
2023-03-17T16:20:27.073Z,67.30
2023-03-17T16:22:57.104Z,67.50
2023-03-17T16:25:29.282Z,67.80
2023-03-17T16:27:59.023Z,68.30
2023-03-17T16:30:29.545Z,68.50
2023-03-17T16:33:02.070Z,68.80
2023-03-17T16:35:30.751Z,69.20
2023-03-17T16:37:58.829Z,69.40
2023-03-17T16:40:28.861Z,69.80
2023-03-17T16:42:57.807Z,70.10
2023-03-17T16:45:28.598Z,70.40
2023-03-17T16:47:57.777Z,70.70
2023-03-17T16:50:29.816Z,70.70
2023-03-17T16:52:58.343Z,71.10
2023-03-17T16:55:28.099Z,71.40
2023-03-17T16:58:00.620Z,71.50
2023-03-17T17:00:31.221Z,71.70
2023-03-17T17:02:59.769Z,71.90
2023-03-17T17:05:31.248Z,72.10
2023-03-17T17:07:59.733Z,72.20
2023-03-17T17:10:29.966Z,72.60
2023-03-17T17:12:58.207Z,73.00
2023-03-17T17:15:26.526Z,73.40
2023-03-17T17:17:57.921Z,73.80
2023-03-17T17:20:30.789Z,74.30
2023-03-17T17:22:59.572Z,74.70
2023-03-17T17:25:28.238Z,75.00
2023-03-17T17:27:57.172Z,75.30
2023-03-17T17:30:28.093Z,75.60
2023-03-17T17:32:57.804Z,75.90
2023-03-17T17:35:32.004Z,76.20
2023-03-17T17:38:01.097Z,76.30
2023-03-17T17:40:30.413Z,76.60
2023-03-17T17:42:59.226Z,76.80
2023-03-17T17:45:27.489Z,77.00
2023-03-17T17:47:56.390Z,77.20
2023-03-17T17:50:29.473Z,77.60
2023-03-17T17:53:04.780Z,78.20
2023-03-17T17:55:34.155Z,79.30
2023-03-17T17:58:02.269Z,80.10
2023-03-17T18:00:30.699Z,80.90
2023-03-17T18:02:58.947Z,81.90
2023-03-17T18:05:28.474Z,82.70
2023-03-17T18:07:56.379Z,83.60
2023-03-17T18:10:25.985Z,84.30
2023-03-17T18:12:55.535Z,85.20
2023-03-17T18:15:24.222Z,86.20
2023-03-17T18:17:52.568Z,87.30
2023-03-17T18:20:22.616Z,87.90
2023-03-17T18:22:52.885Z,88.80
2023-03-17T18:25:21.509Z,89.60
2023-03-17T18:27:49.839Z,90.10
2023-03-17T18:30:23.344Z,90.50
2023-03-17T18:32:54.069Z,90.90
2023-03-17T18:35:24.219Z,91.20
2023-03-17T18:37:54.021Z,91.50
2023-03-17T18:40:22.193Z,91.70
2023-03-17T18:42:50.048Z,91.90
2023-03-17T18:45:18.193Z,92.00
2023-03-17T18:47:46.176Z,92.10
2023-03-17T18:50:16.419Z,92.10
2023-03-17T18:52:44.896Z,92.10
2023-03-17T18:55:16.235Z,92.00
2023-03-17T18:57:45.811Z,92.00
2023-03-17T19:00:16.238Z,91.90
2023-03-17T19:02:44.656Z,91.80
2023-03-17T19:05:14.870Z,91.70
2023-03-17T19:07:43.212Z,91.70
2023-03-17T19:10:15.077Z,91.70
2023-03-17T19:12:43.996Z,91.80
2023-03-17T19:15:14.510Z,91.90
2023-03-17T19:17:43.047Z,92.00
2023-03-17T19:20:13.184Z,92.10
2023-03-17T19:22:41.548Z,92.20
2023-03-17T19:25:10.673Z,92.30
2023-03-17T19:27:40.074Z,92.40
2023-03-17T19:30:09.391Z,92.50
2023-03-17T19:32:37.422Z,92.60
2023-03-17T19:35:08.463Z,92.70
2023-03-17T19:37:38.024Z,92.80
2023-03-17T19:40:08.150Z,92.90
2023-03-17T19:42:38.860Z,93.00
2023-03-17T19:45:09.701Z,93.00
2023-03-17T19:47:37.697Z,93.20
2023-03-17T19:50:07.096Z,93.30
2023-03-17T19:52:35.076Z,93.40
2023-03-17T19:55:04.087Z,93.50
2023-03-17T19:57:32.858Z,93.70
2023-03-17T20:00:00.961Z,93.80
2023-03-17T20:02:30.478Z,94.00
2023-03-17T20:04:58.432Z,94.10
2023-03-17T20:07:26.365Z,94.30
2023-03-17T20:09:54.390Z,94.50
2023-03-17T20:12:22.750Z,94.70
2023-03-17T20:14:51.043Z,95.00
2023-03-17T20:17:19.351Z,95.30
2023-03-17T20:19:48.829Z,95.60
2023-03-17T20:22:17.116Z,95.80
2023-03-17T20:24:45.741Z,96.00
2023-03-17T20:27:15.377Z,96.20
2023-03-17T20:29:43.845Z,96.40
2023-03-17T20:32:14.767Z,96.70
2023-03-17T20:34:43.319Z,96.90
2023-03-17T20:37:14.149Z,97.20
2023-03-17T20:39:42.392Z,97.60
2023-03-17T20:42:14.449Z,97.90
2023-03-17T20:44:42.978Z,98.20
2023-03-17T20:47:11.297Z,98.80
2023-03-17T20:49:39.239Z,99.20
2023-03-17T20:52:08.661Z,99.80
2023-03-17T20:54:38.878Z,99.90
2023-03-17T20:57:07.173Z,99.90
2023-03-17T20:59:36.310Z,99.90
2023-03-17T21:02:04.863Z,99.90
2023-03-17T21:04:33.093Z,99.90
2023-03-17T21:07:01.012Z,99.90
2023-03-17T21:09:28.946Z,99.90
2023-03-17T21:11:58.272Z,99.90
2023-03-17T21:14:26.683Z,99.90
2023-03-17T21:16:55.059Z,99.90
2023-03-17T21:19:23.467Z,99.90
2023-03-17T21:21:51.492Z,99.90
2023-03-17T21:24:27.504Z,99.90
2023-03-17T21:26:55.734Z,99.90
2023-03-17T21:29:25.063Z,99.90
2023-03-17T21:31:53.323Z,99.90
2023-03-17T21:34:21.901Z,99.90
2023-03-17T21:36:49.827Z,99.90
2023-03-17T21:39:17.888Z,99.90
2023-03-17T21:41:46.894Z,99.90
2023-03-17T21:44:15.890Z,99.90
2023-03-17T21:46:46.499Z,99.90
2023-03-17T21:49:16.115Z,99.90
2023-03-17T21:51:44.349Z,99.90
2023-03-17T21:54:12.649Z,99.90
2023-03-17T21:56:41.390Z,99.90
2023-03-17T21:59:10.943Z,99.90
2023-03-17T22:01:39.212Z,99.90
2023-03-17T22:04:09.093Z,99.90
2023-03-17T22:06:37.118Z,99.90
2023-03-17T22:09:06.371Z,99.90
2023-03-17T22:11:34.336Z,99.90
2023-03-17T22:14:02.486Z,99.90
2023-03-17T22:16:30.665Z,99.90
2023-03-17T22:18:58.646Z,99.90
2023-03-17T22:21:29.768Z,99.90
2023-03-17T22:23:57.824Z,99.90
2023-03-17T22:26:25.768Z,99.90
2023-03-17T22:28:53.737Z,99.90
2023-03-17T22:31:24.180Z,99.90
2023-03-17T22:33:54.970Z,99.90
2023-03-17T22:36:23.420Z,99.90
2023-03-17T22:38:52.808Z,99.90
2023-03-17T22:41:22.601Z,99.90
2023-03-17T22:43:50.830Z,99.90
2023-03-17T22:46:19.110Z,99.90
2023-03-17T22:48:47.550Z,99.90
2023-03-17T22:51:17.582Z,99.90
2023-03-17T22:53:46.428Z,99.90
2023-03-17T22:56:17.439Z,99.90
2023-03-17T22:58:46.331Z,99.90
2023-03-17T23:01:16.432Z,99.90
2023-03-17T23:03:45.382Z,99.90
2023-03-17T23:06:14.488Z,99.90
2023-03-17T23:08:43.544Z,99.90
2023-03-17T23:11:16.307Z,99.90
2023-03-17T23:13:45.347Z,99.90
2023-03-17T23:16:13.582Z,99.90
2023-03-17T23:18:42.321Z,99.90
2023-03-17T23:21:11.536Z,99.90
2023-03-17T23:23:41.353Z,99.90
2023-03-17T23:26:09.323Z,99.90
2023-03-17T23:28:38.717Z,99.90
2023-03-17T23:31:06.995Z,99.90
2023-03-17T23:33:35.005Z,99.90
2023-03-17T23:36:03.041Z,99.90
2023-03-17T23:38:30.966Z,99.90
2023-03-17T23:40:59.111Z,99.90
2023-03-17T23:43:27.410Z,99.90
2023-03-17T23:45:56.741Z,99.90
2023-03-17T23:48:25.503Z,99.90
2023-03-17T23:50:54.276Z,99.90
2023-03-17T23:53:24.071Z,99.90
2023-03-17T23:55:52.763Z,99.90
2023-03-17T23:58:21.196Z,99.90
